Time,TemperatureF,DewpointF,PressureIn,WindDirection,WindDirectionDegrees,WindSpeedMPH,WindSpeedGustMPH,Humidity,HourlyPrecipIn,Conditions,Clouds,dailyrainin,SoftwareType,DateUTC
2013-02-21 00:03:00,44.1,38.6,30.17,NNE,22,11.0,15.0,81,0.00,,,0.00,Wunderground v.1.15,2013-02-21 08:03:00,
2013-02-21 00:08:00,43.3,38.5,30.17,NE,55,9.0,15.0,83,0.00,,,0.00,Wunderground v.1.15,2013-02-21 08:08:00,
2013-02-21 00:13:00,42.9,38.1,30.17,NE,55,3.0,7.0,83,0.00,,,0.00,Wunderground v.1.15,2013-02-21 08:13:00,
2013-02-21 00:19:00,43.1,38.9,30.17,NNW,342,3.0,7.0,85,0.00,,,0.00,Wunderground v.1.15,2013-02-21 08:19:00,
2013-02-21 00:24:00,43.6,39.1,30.17,NNW,343,5.0,6.0,84,0.00,,,0.00,Wunderground v.1.15,2013-02-21 08:24:00,
2013-02-21 00:29:00,44.1,39.0,30.17,NNW,348,6.0,10.0,82,0.00,,,0.01,Wunderground v.1.15,2013-02-21 08:29:00,
2013-02-21 00:35:00,44.4,38.9,30.18,NNW,329,8.0,9.0,81,0.00,,,0.01,Wunderground v.1.15,2013-02-21 08:35:00,
2013-02-21 00:40:00,44.8,39.0,30.18,North,351,9.0,11.0,80,0.00,,,0.01,Wunderground v.1.15,2013-02-21 08:40:00,
2013-02-21 00:45:00,44.9,39.1,30.18,North,9,9.0,12.0,80,0.00,,,0.01,Wunderground v.1.15,2013-02-21 08:45:00,
2013-02-21 00:51:00,44.7,38.9,30.18,North,360,8.0,9.0,80,0.00,,,0.01,Wunderground v.1.15,2013-02-21 08:51:00,
2013-02-21 00:57:00,44.7,38.6,30.18,North,355,8.0,10.0,79,0.00,,,0.01,Wunderground v.1.15,2013-02-21 08:57:00,
2013-02-21 01:02:00,44.8,38.0,30.18,NNW,328,9.0,17.0,77,0.00,,,0.01,Wunderground v.1.15,2013-02-21 09:02:00,
2013-02-21 01:08:00,44.7,37.9,30.18,NNW,336,9.0,17.0,77,0.00,,,0.01,Wunderground v.1.15,2013-02-21 09:08:00,
2013-02-21 01:14:00,44.7,38.3,30.18,NNW,338,6.0,17.0,78,0.00,,,0.01,Wunderground v.1.15,2013-02-21 09:14:00,
2013-02-21 01:20:00,44.8,38.0,30.18,NNW,342,7.0,17.0,77,0.00,,,0.01,Wunderground v.1.15,2013-02-21 09:20:00,
2013-02-21 01:25:00,44.9,37.8,30.18,NNW,342,8.0,17.0,76,0.00,,,0.01,Wunderground v.1.15,2013-02-21 09:25:00,
2013-02-21 01:31:00,44.9,38.1,30.18,NNW,346,8.0,17.0,77,0.00,,,0.01,Wunderground v.1.15,2013-02-21 09:31:00,
2013-02-21 01:36:00,44.8,38.0,30.18,North,350,9.0,17.0,77,0.00,,,0.01,Wunderground v.1.15,2013-02-21 09:36:00,
2013-02-21 01:41:00,44.7,37.9,30.19,North,355,8.0,17.0,77,0.00,,,0.01,Wunderground v.1.15,2013-02-21 09:41:00,
2013-02-21 01:46:00,44.6,37.5,30.19,NNW,344,7.0,17.0,76,0.00,,,0.01,Wunderground v.1.15,2013-02-21 09:46:00,
2013-02-21 01:51:00,44.7,37.9,30.19,NNW,348,7.0,17.0,77,0.00,,,0.01,Wunderground v.1.15,2013-02-21 09:51:00,
2013-02-21 01:57:00,44.5,38.1,30.19,NE,37,7.0,17.0,78,0.00,,,0.01,Wunderground v.1.15,2013-02-21 09:57:00,
2013-02-21 02:03:00,43.7,37.3,30.20,NE,37,3.0,17.0,78,0.00,,,0.01,Wunderground v.1.15,2013-02-21 10:03:00,
2013-02-21 02:09:00,42.9,37.2,30.20,NE,37,1.0,17.0,80,0.00,,,0.01,Wunderground v.1.15,2013-02-21 10:09:00,
2013-02-21 02:14:00,42.4,37.0,30.20,NE,37,1.0,17.0,81,0.00,,,0.01,Wunderground v.1.15,2013-02-21 10:14:00,
2013-02-21 02:19:00,42.2,37.1,30.20,NE,37,2.0,17.0,82,0.00,,,0.01,Wunderground v.1.15,2013-02-21 10:19:00,
2013-02-21 02:25:00,42.1,37.3,30.21,NE,37,1.0,17.0,83,0.00,,,0.01,Wunderground v.1.15,2013-02-21 10:25:00,
2013-02-21 02:31:00,42.1,37.3,30.21,NE,37,1.0,17.0,83,0.00,,,0.01,Wunderground v.1.15,2013-02-21 10:31:00,
2013-02-21 02:37:00,42.5,38.3,30.20,North,355,2.0,17.0,85,0.00,,,0.01,Wunderground v.1.15,2013-02-21 10:37:00,
2013-02-21 02:42:00,43.5,39.0,30.20,ENE,73,6.0,17.0,84,0.00,,,0.01,Wunderground v.1.15,2013-02-21 10:42:00,
2013-02-21 02:48:00,42.9,38.1,30.21,NNE,31,5.0,17.0,83,0.00,,,0.01,Wunderground v.1.15,2013-02-21 10:48:00,
2013-02-21 02:54:00,42.3,37.8,30.21,ENE,66,3.0,17.0,84,0.00,,,0.01,Wunderground v.1.15,2013-02-21 10:54:00,
2013-02-21 03:00:00,41.6,37.4,30.21,ENE,66,2.0,17.0,85,0.00,,,0.01,Wunderground v.1.15,2013-02-21 11:00:00,
2013-02-21 03:05:00,41.2,37.0,30.21,ENE,66,2.0,17.0,85,0.00,,,0.01,Wunderground v.1.15,2013-02-21 11:05:00,
2013-02-21 03:11:00,41.0,37.1,30.21,NE,37,1.0,17.0,86,0.00,,,0.01,Wunderground v.1.15,2013-02-21 11:11:00,
2013-02-21 03:16:00,41.9,38.3,30.21,North,360,4.0,17.0,87,0.00,,,0.01,Wunderground v.1.15,2013-02-21 11:16:00,
2013-02-21 03:22:00,42.9,38.7,30.21,North,360,6.0,17.0,85,0.00,,,0.01,Wunderground v.1.15,2013-02-21 11:22:00,
2013-02-21 03:28:00,43.5,38.7,30.21,NNE,22,8.0,17.0,83,0.00,,,0.01,Wunderground v.1.15,2013-02-21 11:28:00,
2013-02-21 03:34:00,42.5,38.0,30.21,NNW,347,6.0,17.0,84,0.00,,,0.01,Wunderground v.1.15,2013-02-21 11:34:00,
2013-02-21 03:39:00,42.5,38.3,30.21,NE,51,5.0,17.0,85,0.00,,,0.01,Wunderground v.1.15,2013-02-21 11:39:00,
2013-02-21 03:44:00,42.3,37.5,30.21,NE,53,4.0,17.0,83,0.00,,,0.01,Wunderground v.1.15,2013-02-21 11:44:00,
2013-02-21 03:50:00,41.7,36.9,30.20,NE,53,1.0,1.0,83,0.00,,,0.01,Wunderground v.1.15,2013-02-21 11:50:00,
2013-02-21 03:56:00,41.1,36.6,30.20,NE,54,1.0,17.0,84,0.00,,,0.01,Wunderground v.1.15,2013-02-21 11:56:00,
2013-02-21 04:01:00,40.6,36.1,30.20,ENE,63,2.0,17.0,84,0.00,,,0.01,Wunderground v.1.15,2013-02-21 12:01:00,
2013-02-21 04:06:00,40.2,36.1,30.21,ENE,65,2.0,17.0,85,0.00,,,0.01,Wunderground v.1.15,2013-02-21 12:06:00,
2013-02-21 04:11:00,39.9,35.8,30.21,ENE,65,1.0,17.0,85,0.00,,,0.01,Wunderground v.1.15,2013-02-21 12:11:00,
2013-02-21 04:17:00,39.6,35.5,30.21,ENE,65,0.0,17.0,85,0.00,,,0.01,Wunderground v.1.15,2013-02-21 12:17:00,
2013-02-21 04:22:00,39.3,35.5,30.21,ENE,65,0.0,17.0,86,0.00,,,0.01,Wunderground v.1.15,2013-02-21 12:22:00,
2013-02-21 04:27:00,39.1,35.3,30.21,ENE,65,0.0,17.0,86,0.00,,,0.01,Wunderground v.1.15,2013-02-21 12:27:00,
2013-02-21 04:33:00,38.9,35.4,30.21,ENE,65,0.0,17.0,87,0.00,,,0.01,Wunderground v.1.15,2013-02-21 12:33:00,
2013-02-21 04:38:00,38.7,35.2,30.21,ENE,65,0.0,17.0,87,0.00,,,0.01,Wunderground v.1.15,2013-02-21 12:38:00,
2013-02-21 04:43:00,38.7,35.5,30.21,ENE,65,0.0,17.0,88,0.00,,,0.01,Wunderground v.1.15,2013-02-21 12:43:00,
2013-02-21 04:49:00,38.6,35.4,30.21,ENE,65,1.0,17.0,88,0.00,,,0.01,Wunderground v.1.15,2013-02-21 12:49:00,
2013-02-21 04:54:00,38.6,35.4,30.21,ENE,75,2.0,17.0,88,0.00,,,0.01,Wunderground v.1.15,2013-02-21 12:54:00,
2013-02-21 05:00:00,38.7,35.5,30.22,East,93,2.0,2.0,88,0.00,,,0.01,Wunderground v.1.15,2013-02-21 13:00:00,
2013-02-21 05:05:00,38.5,35.3,30.22,East,93,1.0,17.0,88,0.00,,,0.01,Wunderground v.1.15,2013-02-21 13:05:00,
2013-02-21 05:11:00,38.5,35.5,30.22,East,93,1.0,17.0,89,0.00,,,0.01,Wunderground v.1.15,2013-02-21 13:11:00,
2013-02-21 05:17:00,38.4,35.4,30.22,East,93,0.0,17.0,89,0.00,,,0.01,Wunderground v.1.15,2013-02-21 13:17:00,
2013-02-21 05:23:00,38.4,35.4,30.22,East,94,2.0,17.0,89,0.00,,,0.01,Wunderground v.1.15,2013-02-21 13:23:00,
2013-02-21 05:29:00,38.3,35.3,30.22,East,94,3.0,17.0,89,0.00,,,0.01,Wunderground v.1.15,2013-02-21 13:29:00,
2013-02-21 05:35:00,38.3,35.6,30.22,East,94,3.0,17.0,90,0.00,,,0.01,Wunderground v.1.15,2013-02-21 13:35:00,
2013-02-21 05:41:00,38.3,35.6,30.22,East,94,2.0,17.0,90,0.00,,,0.01,Wunderground v.1.15,2013-02-21 13:41:00,
2013-02-21 05:47:00,38.2,35.5,30.22,East,94,1.0,17.0,90,0.00,,,0.01,Wunderground v.1.15,2013-02-21 13:47:00,
2013-02-21 05:53:00,38.1,35.4,30.22,East,94,1.0,17.0,90,0.00,,,0.01,Wunderground v.1.15,2013-02-21 13:53:00,
2013-02-21 05:58:00,38.1,35.4,30.22,East,94,1.0,17.0,90,0.00,,,0.01,Wunderground v.1.15,2013-02-21 13:58:00,
2013-02-21 06:04:00,38.0,35.3,30.23,East,94,0.0,17.0,90,0.00,,,0.01,Wunderground v.1.15,2013-02-21 14:04:00,
2013-02-21 06:10:00,37.9,35.2,30.23,East,94,0.0,17.0,90,0.00,,,0.01,Wunderground v.1.15,2013-02-21 14:10:00,
2013-02-21 06:15:00,37.9,35.2,30.23,East,94,0.0,17.0,90,0.00,,,0.01,Wunderground v.1.15,2013-02-21 14:15:00,
2013-02-21 06:21:00,37.8,35.4,30.23,East,94,0.0,17.0,91,0.00,,,0.01,Wunderground v.1.15,2013-02-21 14:21:00,
2013-02-21 06:26:00,37.8,35.4,30.22,East,94,0.0,17.0,91,0.00,,,0.01,Wunderground v.1.15,2013-02-21 14:26:00,
2013-02-21 06:32:00,37.8,35.4,30.23,East,94,0.0,17.0,91,0.00,,,0.01,Wunderground v.1.15,2013-02-21 14:32:00,
2013-02-21 06:37:00,37.7,35.3,30.23,East,94,0.0,17.0,91,0.00,,,0.01,Wunderground v.1.15,2013-02-21 14:37:00,
2013-02-21 06:42:00,37.7,35.3,30.23,East,94,0.0,17.0,91,0.00,,,0.01,Wunderground v.1.15,2013-02-21 14:42:00,
2013-02-21 06:48:00,37.7,35.3,30.23,East,94,0.0,17.0,91,0.00,,,0.01,Wunderground v.1.15,2013-02-21 14:48:00,
2013-02-21 06:54:00,37.7,35.6,30.23,East,94,0.0,17.0,92,0.00,,,0.01,Wunderground v.1.15,2013-02-21 14:54:00,
2013-02-21 07:00:00,37.7,35.6,30.24,East,94,0.0,17.0,92,0.00,,,0.01,Wunderground v.1.15,2013-02-21 15:00:00,
2013-02-21 07:06:00,37.7,35.6,30.24,East,94,0.0,17.0,92,0.00,,,0.01,Wunderground v.1.15,2013-02-21 15:06:00,
2013-02-21 07:11:00,37.7,35.6,30.24,East,94,0.0,17.0,92,0.00,,,0.01,Wunderground v.1.15,2013-02-21 15:11:00,
2013-02-21 07:17:00,37.7,35.6,30.24,East,94,0.0,17.0,92,0.00,,,0.01,Wunderground v.1.15,2013-02-21 15:17:00,
2013-02-21 07:22:00,37.7,35.6,30.24,East,94,0.0,17.0,92,0.00,,,0.01,Wunderground v.1.15,2013-02-21 15:22:00,
2013-02-21 07:28:00,37.7,35.6,30.25,East,94,1.0,17.0,92,0.00,,,0.01,Wunderground v.1.15,2013-02-21 15:28:00,
2013-02-21 07:34:00,37.6,35.5,30.25,East,94,0.0,17.0,92,0.00,,,0.01,Wunderground v.1.15,2013-02-21 15:34:00,
2013-02-21 07:39:00,37.6,35.5,30.25,East,94,0.0,17.0,92,0.00,,,0.01,Wunderground v.1.15,2013-02-21 15:39:00,
2013-02-21 07:45:00,37.6,35.8,30.25,East,94,0.0,17.0,93,0.00,,,0.01,Wunderground v.1.15,2013-02-21 15:45:00,
2013-02-21 07:50:00,37.7,35.9,30.25,East,94,0.0,17.0,93,0.00,,,0.01,Wunderground v.1.15,2013-02-21 15:50:00,
2013-02-21 07:56:00,37.8,36.0,30.25,East,94,0.0,17.0,93,0.00,,,0.01,Wunderground v.1.15,2013-02-21 15:56:00,
2013-02-21 08:01:00,37.9,36.1,30.25,East,94,1.0,17.0,93,0.00,,,0.01,Wunderground v.1.15,2013-02-21 16:01:00,
2013-02-21 08:06:00,38.1,36.3,30.26,East,94,1.0,17.0,93,0.00,,,0.01,Wunderground v.1.15,2013-02-21 16:06:00,
2013-02-21 08:12:00,38.3,36.5,30.26,East,94,0.0,17.0,93,0.00,,,0.01,Wunderground v.1.15,2013-02-21 16:12:00,
2013-02-21 08:18:00,38.7,36.9,30.26,East,94,1.0,17.0,93,0.00,,,0.01,Wunderground v.1.15,2013-02-21 16:18:00,
2013-02-21 08:23:00,38.9,37.0,30.26,East,94,1.0,17.0,93,0.00,,,0.01,Wunderground v.1.15,2013-02-21 16:23:00,
2013-02-21 08:28:00,39.0,37.1,30.26,East,94,0.0,17.0,93,0.00,,,0.01,Wunderground v.1.15,2013-02-21 16:28:00,
2013-02-21 08:34:00,39.2,37.3,30.27,East,94,0.0,17.0,93,0.00,,,0.01,Wunderground v.1.15,2013-02-21 16:34:00,
2013-02-21 08:40:00,39.5,37.6,30.27,East,94,1.0,17.0,93,0.00,,,0.01,Wunderground v.1.15,2013-02-21 16:40:00,
2013-02-21 08:46:00,39.9,38.0,30.27,East,94,1.0,17.0,93,0.00,,,0.01,Wunderground v.1.15,2013-02-21 16:46:00,
2013-02-21 08:52:00,40.3,38.7,30.27,East,94,1.0,17.0,94,0.00,,,0.01,Wunderground v.1.15,2013-02-21 16:52:00,
2013-02-21 08:57:00,40.7,38.8,30.26,East,94,1.0,17.0,93,0.00,,,0.01,Wunderground v.1.15,2013-02-21 16:57:00,
2013-02-21 09:02:00,41.0,39.1,30.26,East,94,2.0,17.0,93,0.00,,,0.01,Wunderground v.1.15,2013-02-21 17:02:00,
2013-02-21 09:07:00,41.4,39.5,30.27,East,94,2.0,17.0,93,0.00,,,0.01,Wunderground v.1.15,2013-02-21 17:07:00,
2013-02-21 09:12:00,41.7,39.8,30.27,East,94,1.0,17.0,93,0.00,,,0.01,Wunderground v.1.15,2013-02-21 17:12:00,
2013-02-21 09:18:00,42.1,40.2,30.27,East,94,1.0,17.0,93,0.00,,,0.01,Wunderground v.1.15,2013-02-21 17:18:00,
2013-02-21 09:24:00,42.6,40.7,30.27,East,94,1.0,17.0,93,0.00,,,0.01,Wunderground v.1.15,2013-02-21 17:24:00,
2013-02-21 09:30:00,42.9,40.7,30.27,East,94,1.0,17.0,92,0.00,,,0.01,Wunderground v.1.15,2013-02-21 17:30:00,
2013-02-21 09:35:00,43.2,41.0,30.28,East,94,1.0,17.0,92,0.00,,,0.01,Wunderground v.1.15,2013-02-21 17:35:00,
2013-02-21 09:41:00,43.2,40.8,30.28,East,94,1.0,17.0,91,0.00,,,0.01,Wunderground v.1.15,2013-02-21 17:41:00,
2013-02-21 09:46:00,42.9,39.9,30.28,North,350,2.0,17.0,89,0.00,,,0.01,Wunderground v.1.15,2013-02-21 17:46:00,
2013-02-21 09:52:00,42.7,39.7,30.27,North,350,3.0,17.0,89,0.00,,,0.01,Wunderground v.1.15,2013-02-21 17:52:00,
2013-02-21 09:58:00,42.9,39.9,30.27,North,351,1.0,17.0,89,0.00,,,0.01,Wunderground v.1.15,2013-02-21 17:58:00,
2013-02-21 10:03:00,43.1,39.8,30.27,North,351,1.0,17.0,88,0.00,,,0.01,Wunderground v.1.15,2013-02-21 18:03:00,
2013-02-21 10:09:00,43.2,40.2,30.28,North,351,2.0,17.0,89,0.00,,,0.01,Wunderground v.1.15,2013-02-21 18:09:00,
2013-02-21 10:15:00,43.5,40.5,30.29,North,351,2.0,17.0,89,0.00,,,0.01,Wunderground v.1.15,2013-02-21 18:15:00,
2013-02-21 10:21:00,43.6,40.3,30.29,North,351,2.0,17.0,88,0.00,,,0.01,Wunderground v.1.15,2013-02-21 18:21:00,
2013-02-21 10:27:00,43.7,40.4,30.29,North,351,2.0,17.0,88,0.00,,,0.01,Wunderground v.1.15,2013-02-21 18:27:00,
2013-02-21 10:32:00,43.9,40.6,30.29,North,351,2.0,17.0,88,0.00,,,0.01,Wunderground v.1.15,2013-02-21 18:32:00,
2013-02-21 10:37:00,44.0,40.7,30.29,SW,219,3.0,17.0,88,0.00,,,0.01,Wunderground v.1.15,2013-02-21 18:37:00,
2013-02-21 10:43:00,43.8,40.2,30.29,SW,219,3.0,17.0,87,0.00,,,0.01,Wunderground v.1.15,2013-02-21 18:43:00,
2013-02-21 10:49:00,43.9,40.3,30.28,SW,219,3.0,17.0,87,0.00,,,0.01,Wunderground v.1.15,2013-02-21 18:49:00,
2013-02-21 10:55:00,44.2,40.3,30.29,SW,219,3.0,17.0,86,0.00,,,0.01,Wunderground v.1.15,2013-02-21 18:55:00,
2013-02-21 11:01:00,44.4,40.5,30.29,SW,219,2.0,17.0,86,0.00,,,0.01,Wunderground v.1.15,2013-02-21 19:01:00,
2013-02-21 11:06:00,44.6,40.7,30.29,SW,219,3.0,17.0,86,0.00,,,0.01,Wunderground v.1.15,2013-02-21 19:06:00,
2013-02-21 11:12:00,44.6,40.4,30.29,SW,219,3.0,17.0,85,0.00,,,0.01,Wunderground v.1.15,2013-02-21 19:12:00,
2013-02-21 11:17:00,44.6,40.4,30.29,SSW,202,4.0,17.0,85,0.00,,,0.01,Wunderground v.1.15,2013-02-21 19:17:00,
2013-02-21 11:22:00,44.7,40.5,30.28,SSW,202,4.0,17.0,85,0.00,,,0.01,Wunderground v.1.15,2013-02-21 19:22:00,
2013-02-21 11:27:00,44.7,40.5,30.29,SSW,202,4.0,17.0,85,0.00,,,0.01,Wunderground v.1.15,2013-02-21 19:27:00,
2013-02-21 11:33:00,44.9,40.7,30.29,SSW,207,3.0,17.0,85,0.00,,,0.01,Wunderground v.1.15,2013-02-21 19:33:00,
2013-02-21 11:38:00,45.0,40.5,30.29,SSW,211,3.0,17.0,84,0.00,,,0.01,Wunderground v.1.15,2013-02-21 19:38:00,
2013-02-21 11:44:00,45.2,40.7,30.29,SSW,204,3.0,17.0,84,0.00,,,0.01,Wunderground v.1.15,2013-02-21 19:44:00,
2013-02-21 11:49:00,45.3,40.7,30.28,SSW,201,3.0,17.0,84,0.00,,,0.01,Wunderground v.1.15,2013-02-21 19:49:00,
2013-02-21 11:55:00,45.3,41.1,30.28,SSW,201,4.0,17.0,85,0.00,,,0.01,Wunderground v.1.15,2013-02-21 19:55:00,
2013-02-21 12:01:00,45.1,40.6,30.28,SSW,211,3.0,17.0,84,0.00,,,0.01,Wunderground v.1.15,2013-02-21 20:01:00,
2013-02-21 12:06:00,45.1,40.2,30.28,SSW,211,3.0,17.0,83,0.00,,,0.01,Wunderground v.1.15,2013-02-21 20:06:00,
2013-02-21 12:12:00,45.0,39.8,30.27,SSW,211,3.0,17.0,82,0.00,,,0.01,Wunderground v.1.15,2013-02-21 20:12:00,
2013-02-21 12:18:00,45.1,39.9,30.26,SSW,197,2.0,17.0,82,0.00,,,0.01,Wunderground v.1.15,2013-02-21 20:18:00,
2013-02-21 12:23:00,45.6,40.4,30.26,South,171,2.0,17.0,82,0.00,,,0.01,Wunderground v.1.15,2013-02-21 20:23:00,
2013-02-21 12:28:00,46.0,40.8,30.26,South,169,2.0,17.0,82,0.00,,,0.01,Wunderground v.1.15,2013-02-21 20:28:00,
2013-02-21 12:33:00,46.2,41.0,30.26,South,169,3.0,17.0,82,0.00,,,0.01,Wunderground v.1.15,2013-02-21 20:33:00,
2013-02-21 12:39:00,46.7,41.5,30.25,SSE,168,2.0,17.0,82,0.00,,,0.01,Wunderground v.1.15,2013-02-21 20:39:00,
2013-02-21 12:45:00,46.8,41.0,30.25,South,185,3.0,17.0,80,0.00,,,0.01,Wunderground v.1.15,2013-02-21 20:45:00,
2013-02-21 12:51:00,46.2,39.7,30.25,SSW,209,5.0,17.0,78,0.00,,,0.01,Wunderground v.1.15,2013-02-21 20:51:00,
2013-02-21 12:57:00,46.1,39.9,30.26,SSW,209,5.0,17.0,79,0.00,,,0.01,Wunderground v.1.15,2013-02-21 20:57:00,
2013-02-21 13:02:00,45.6,38.8,30.25,SW,220,6.0,17.0,77,0.00,,,0.01,Wunderground v.1.15,2013-02-21 21:02:00,
2013-02-21 13:08:00,45.6,39.1,30.25,SW,224,6.0,17.0,78,0.00,,,0.01,Wunderground v.1.15,2013-02-21 21:08:00,
2013-02-21 13:13:00,45.9,39.4,30.26,SW,225,6.0,17.0,78,0.00,,,0.01,Wunderground v.1.15,2013-02-21 21:13:00,
2013-02-21 13:19:00,46.0,39.5,30.26,SW,230,6.0,17.0,78,0.00,,,0.01,Wunderground v.1.15,2013-02-21 21:19:00,
2013-02-21 13:24:00,45.8,39.3,30.25,SW,230,6.0,17.0,78,0.00,,,0.01,Wunderground v.1.15,2013-02-21 21:24:00,
2013-02-21 13:30:00,45.8,39.3,30.25,SW,231,6.0,17.0,78,0.00,,,0.01,Wunderground v.1.15,2013-02-21 21:30:00,
2013-02-21 13:35:00,45.9,39.8,30.25,SW,229,6.0,17.0,79,0.00,,,0.01,Wunderground v.1.15,2013-02-21 21:35:00,
2013-02-21 13:41:00,45.8,39.0,30.25,SW,228,6.0,17.0,77,0.00,,,0.01,Wunderground v.1.15,2013-02-21 21:41:00,
2013-02-21 13:47:00,45.8,39.3,30.25,SW,227,6.0,17.0,78,0.00,,,0.01,Wunderground v.1.15,2013-02-21 21:47:00,
2013-02-21 13:52:00,46.0,39.9,30.25,SW,223,6.0,17.0,79,0.00,,,0.01,Wunderground v.1.15,2013-02-21 21:52:00,
2013-02-21 13:57:00,45.8,39.3,30.25,SW,227,6.0,17.0,78,0.00,,,0.01,Wunderground v.1.15,2013-02-21 21:57:00,
2013-02-21 14:03:00,45.4,38.9,30.25,SW,228,8.0,17.0,78,0.00,,,0.01,Wunderground v.1.15,2013-02-21 22:03:00,
2013-02-21 14:09:00,45.3,39.2,30.25,SW,227,8.0,17.0,79,0.00,,,0.01,Wunderground v.1.15,2013-02-21 22:09:00,
2013-02-21 14:14:00,45.2,39.4,30.24,SW,221,8.0,17.0,80,0.00,,,0.01,Wunderground v.1.15,2013-02-21 22:14:00,
2013-02-21 14:20:00,45.2,39.1,30.24,SW,231,8.0,17.0,79,0.00,,,0.01,Wunderground v.1.15,2013-02-21 22:20:00,
2013-02-21 14:26:00,45.2,39.1,30.25,SW,227,8.0,17.0,79,0.00,,,0.01,Wunderground v.1.15,2013-02-21 22:26:00,
2013-02-21 14:31:00,45.2,39.4,30.25,SW,224,8.0,17.0,80,0.00,,,0.01,Wunderground v.1.15,2013-02-21 22:31:00,
2013-02-21 14:37:00,45.4,39.9,30.25,SW,219,7.0,17.0,81,0.00,,,0.01,Wunderground v.1.15,2013-02-21 22:37:00,
2013-02-21 14:43:00,45.4,39.9,30.25,SSW,202,6.0,17.0,81,0.00,,,0.01,Wunderground v.1.15,2013-02-21 22:43:00,
2013-02-21 14:49:00,45.3,39.8,30.25,SW,228,6.0,17.0,81,0.00,,,0.01,Wunderground v.1.15,2013-02-21 22:49:00,
2013-02-21 14:55:00,45.4,40.2,30.25,SSW,203,6.0,17.0,82,0.00,,,0.01,Wunderground v.1.15,2013-02-21 22:55:00,
2013-02-21 15:01:00,45.4,39.9,30.25,SSW,211,7.0,7.0,81,0.00,,,0.01,Wunderground v.1.15,2013-02-21 23:01:00,
2013-02-21 15:07:00,45.7,40.2,30.25,SSW,206,6.0,17.0,81,0.00,,,0.01,Wunderground v.1.15,2013-02-21 23:07:00,
2013-02-21 15:12:00,45.6,40.1,30.25,SSW,205,6.0,17.0,81,0.00,,,0.01,Wunderground v.1.15,2013-02-21 23:12:00,
2013-02-21 15:18:00,45.6,40.1,30.25,SSW,205,7.0,17.0,81,0.00,,,0.01,Wunderground v.1.15,2013-02-21 23:18:00,
2013-02-21 15:24:00,45.6,40.4,30.25,SSW,205,6.0,17.0,82,0.00,,,0.01,Wunderground v.1.15,2013-02-21 23:24:00,
2013-02-21 15:30:00,45.7,40.5,30.25,SSW,196,6.0,17.0,82,0.00,,,0.01,Wunderground v.1.15,2013-02-21 23:30:00,
2013-02-21 15:35:00,45.7,40.5,30.24,SSW,196,6.0,17.0,82,0.00,,,0.01,Wunderground v.1.15,2013-02-21 23:35:00,
2013-02-21 15:40:00,45.7,40.8,30.24,SSW,193,7.0,17.0,83,0.00,,,0.01,Wunderground v.1.15,2013-02-21 23:40:00,
2013-02-21 15:46:00,45.7,40.5,30.24,South,178,7.0,17.0,82,0.00,,,0.01,Wunderground v.1.15,2013-02-21 23:46:00,
2013-02-21 15:52:00,45.6,40.4,30.24,SSW,198,7.0,17.0,82,0.00,,,0.01,Wunderground v.1.15,2013-02-21 23:52:00,
2013-02-21 15:57:00,45.5,40.3,30.23,SSW,199,7.0,17.0,82,0.00,,,0.01,Wunderground v.1.15,2013-02-21 23:57:00,
2013-02-21 16:02:00,45.4,40.5,30.24,SSW,198,7.0,17.0,83,0.00,,,0.01,Wunderground v.1.15,2013-02-22 00:02:00,
2013-02-21 16:08:00,45.4,40.5,30.23,SSW,196,7.0,17.0,83,0.00,,,0.01,Wunderground v.1.15,2013-02-22 00:08:00,
2013-02-21 16:14:00,45.4,40.5,30.23,SSW,193,7.0,17.0,83,0.00,,,0.01,Wunderground v.1.15,2013-02-22 00:14:00,
2013-02-21 16:19:00,45.3,40.4,30.23,South,184,7.0,17.0,83,0.00,,,0.01,Wunderground v.1.15,2013-02-22 00:19:00,
2013-02-21 16:25:00,45.2,40.3,30.24,SSW,202,7.0,17.0,83,0.00,,,0.01,Wunderground v.1.15,2013-02-22 00:25:00,
2013-02-21 16:31:00,45.2,40.3,30.24,South,191,7.0,17.0,83,0.00,,,0.01,Wunderground v.1.15,2013-02-22 00:31:00,
2013-02-21 16:36:00,45.2,40.3,30.24,SSW,196,6.0,17.0,83,0.00,,,0.01,Wunderground v.1.15,2013-02-22 00:36:00,
2013-02-21 16:42:00,45.1,39.9,30.24,SSW,196,7.0,17.0,82,0.00,,,0.01,Wunderground v.1.15,2013-02-22 00:42:00,
2013-02-21 16:48:00,45.2,40.0,30.24,SSW,193,7.0,17.0,82,0.00,,,0.01,Wunderground v.1.15,2013-02-22 00:48:00,
2013-02-21 16:53:00,45.2,40.0,30.24,SSW,196,7.0,17.0,82,0.00,,,0.01,Wunderground v.1.15,2013-02-22 00:53:00,
2013-02-21 16:59:00,45.2,40.0,30.24,South,190,8.0,17.0,82,0.00,,,0.01,Wunderground v.1.15,2013-02-22 00:59:00,
2013-02-21 17:05:00,45.2,40.0,30.23,SSW,207,7.0,17.0,82,0.00,,,0.01,Wunderground v.1.15,2013-02-22 01:05:00,
2013-02-21 17:11:00,45.2,40.0,30.23,SSW,195,7.0,17.0,82,0.00,,,0.01,Wunderground v.1.15,2013-02-22 01:11:00,
2013-02-21 17:16:00,45.2,40.0,30.23,SSW,207,6.0,17.0,82,0.00,,,0.01,Wunderground v.1.15,2013-02-22 01:16:00,
2013-02-21 17:21:00,45.2,40.0,30.23,South,175,6.0,17.0,82,0.00,,,0.01,Wunderground v.1.15,2013-02-22 01:21:00,
2013-02-21 17:27:00,45.1,40.2,30.23,South,185,6.0,17.0,83,0.00,,,0.01,Wunderground v.1.15,2013-02-22 01:27:00,
2013-02-21 17:32:00,45.0,39.8,30.23,South,179,6.0,17.0,82,0.00,,,0.01,Wunderground v.1.15,2013-02-22 01:32:00,
2013-02-21 17:38:00,45.0,39.8,30.23,South,190,5.0,17.0,82,0.00,,,0.01,Wunderground v.1.15,2013-02-22 01:38:00,
2013-02-21 17:43:00,44.9,40.0,30.23,South,169,5.0,17.0,83,0.00,,,0.01,Wunderground v.1.15,2013-02-22 01:43:00,
2013-02-21 17:49:00,44.8,40.0,30.23,SSE,168,6.0,17.0,83,0.00,,,0.01,Wunderground v.1.15,2013-02-22 01:49:00,
2013-02-21 17:55:00,44.6,39.8,30.23,South,170,5.0,17.0,83,0.00,,,0.01,Wunderground v.1.15,2013-02-22 01:55:00,
2013-02-21 18:01:00,44.5,39.7,30.23,South,178,5.0,6.0,83,0.00,,,0.01,Wunderground v.1.15,2013-02-22 02:01:00,
2013-02-21 18:07:00,44.5,39.7,30.23,South,173,5.0,17.0,83,0.00,,,0.01,Wunderground v.1.15,2013-02-22 02:07:00,
2013-02-21 18:12:00,44.4,39.6,30.23,SSW,196,5.0,17.0,83,0.00,,,0.01,Wunderground v.1.15,2013-02-22 02:12:00,
2013-02-21 18:17:00,44.4,39.6,30.23,South,184,6.0,17.0,83,0.00,,,0.01,Wunderground v.1.15,2013-02-22 02:17:00,
2013-02-21 18:23:00,44.4,39.6,30.23,South,171,6.0,17.0,83,0.00,,,0.01,Wunderground v.1.15,2013-02-22 02:23:00,
2013-02-21 18:29:00,44.3,39.5,30.24,South,186,6.0,17.0,83,0.00,,,0.01,Wunderground v.1.15,2013-02-22 02:29:00,
2013-02-21 18:35:00,44.3,39.5,30.24,SSW,212,4.0,17.0,83,0.00,,,0.01,Wunderground v.1.15,2013-02-22 02:35:00,
2013-02-21 18:40:00,44.4,39.9,30.23,South,179,5.0,17.0,84,0.00,,,0.01,Wunderground v.1.15,2013-02-22 02:40:00,
2013-02-21 18:46:00,44.5,40.0,30.24,South,183,6.0,17.0,84,0.00,,,0.01,Wunderground v.1.15,2013-02-22 02:46:00,
2013-02-21 18:52:00,44.5,40.0,30.24,SSE,165,5.0,17.0,84,0.00,,,0.01,Wunderground v.1.15,2013-02-22 02:52:00,
2013-02-21 18:57:00,44.4,39.6,30.23,SSE,154,5.0,17.0,83,0.00,,,0.01,Wunderground v.1.15,2013-02-22 02:57:00,
2013-02-21 19:03:00,44.2,39.4,30.23,South,169,5.0,17.0,83,0.00,,,0.01,Wunderground v.1.15,2013-02-22 03:03:00,
2013-02-21 19:08:00,44.0,39.2,30.23,South,185,6.0,17.0,83,0.00,,,0.01,Wunderground v.1.15,2013-02-22 03:08:00,
2013-02-21 19:14:00,44.0,39.2,30.23,South,187,5.0,17.0,83,0.00,,,0.01,Wunderground v.1.15,2013-02-22 03:14:00,
2013-02-21 19:19:00,44.1,39.3,30.23,SSE,162,5.0,17.0,83,0.00,,,0.01,Wunderground v.1.15,2013-02-22 03:19:00,
2013-02-21 19:24:00,44.2,39.7,30.23,South,180,5.0,17.0,84,0.00,,,0.01,Wunderground v.1.15,2013-02-22 03:24:00,
2013-02-21 19:29:00,44.4,39.9,30.23,SSW,192,6.0,17.0,84,0.00,,,0.01,Wunderground v.1.15,2013-02-22 03:29:00,
2013-02-21 19:34:00,44.5,40.0,30.23,South,188,6.0,17.0,84,0.00,,,0.01,Wunderground v.1.15,2013-02-22 03:34:00,
2013-02-21 19:40:00,44.5,40.0,30.24,South,177,6.0,6.0,84,0.00,,,0.01,Wunderground v.1.15,2013-02-22 03:40:00,
2013-02-21 19:45:00,44.5,40.0,30.24,South,175,6.0,17.0,84,0.00,,,0.01,Wunderground v.1.15,2013-02-22 03:45:00,
2013-02-21 19:51:00,44.5,40.0,30.24,South,180,5.0,6.0,84,0.00,,,0.01,Wunderground v.1.15,2013-02-22 03:51:00,
2013-02-21 19:56:00,44.4,39.9,30.23,SSE,167,5.0,17.0,84,0.00,,,0.01,Wunderground v.1.15,2013-02-22 03:56:00,
2013-02-21 20:02:00,44.5,40.0,30.23,South,175,6.0,17.0,84,0.00,,,0.01,Wunderground v.1.15,2013-02-22 04:02:00,
2013-02-21 20:08:00,44.6,40.1,30.23,South,184,6.0,17.0,84,0.00,,,0.01,Wunderground v.1.15,2013-02-22 04:08:00,
2013-02-21 20:14:00,44.7,40.2,30.23,SSE,166,7.0,17.0,84,0.00,,,0.01,Wunderground v.1.15,2013-02-22 04:14:00,
2013-02-21 20:20:00,44.7,40.2,30.23,SSW,196,7.0,17.0,84,0.00,,,0.01,Wunderground v.1.15,2013-02-22 04:20:00,
2013-02-21 20:25:00,44.8,40.3,30.23,South,189,7.0,17.0,84,0.00,,,0.01,Wunderground v.1.15,2013-02-22 04:25:00,
2013-02-21 20:31:00,44.8,40.3,30.24,South,180,7.0,17.0,84,0.00,,,0.01,Wunderground v.1.15,2013-02-22 04:31:00,
2013-02-21 20:37:00,44.9,40.4,30.23,SSW,194,7.0,17.0,84,0.00,,,0.01,Wunderground v.1.15,2013-02-22 04:37:00,
2013-02-21 20:42:00,44.8,40.3,30.24,SSW,198,7.0,17.0,84,0.00,,,0.01,Wunderground v.1.15,2013-02-22 04:42:00,
2013-02-21 20:47:00,44.8,40.3,30.24,SSW,195,8.0,17.0,84,0.00,,,0.01,Wunderground v.1.15,2013-02-22 04:47:00,
2013-02-21 20:53:00,44.9,40.4,30.24,SW,219,8.0,17.0,84,0.00,,,0.01,Wunderground v.1.15,2013-02-22 04:53:00,
2013-02-21 20:58:00,44.9,40.7,30.24,SSW,205,8.0,17.0,85,0.00,,,0.01,Wunderground v.1.15,2013-02-22 04:58:00,
2013-02-21 21:00:00,44.8,40.6,30.24,SSW,207,7.0,17.0,85,0.00,,,0.01,Wunderground v.1.15,2013-02-22 05:00:00,
2013-02-21 21:01:00,44.8,40.6,30.24,SSW,198,7.0,17.0,85,0.00,,,0.01,Wunderground v.1.15,2013-02-22 05:01:00,
2013-02-21 21:02:00,44.8,40.9,30.24,SSW,195,7.0,17.0,86,0.00,,,0.01,Wunderground v.1.15,2013-02-22 05:02:00,
2013-02-21 21:07:00,44.6,40.7,30.24,SSW,202,8.0,17.0,86,0.00,,,0.01,Wunderground v.1.15,2013-02-22 05:07:00,
2013-02-21 21:09:00,44.6,41.0,30.24,SSW,193,8.0,17.0,87,0.00,,,0.01,Wunderground v.1.15,2013-02-22 05:09:00,
2013-02-21 21:14:00,44.5,40.9,30.24,SSW,198,8.0,17.0,87,0.00,,,0.01,Wunderground v.1.15,2013-02-22 05:14:00,
2013-02-21 21:19:00,44.5,40.9,30.24,SSW,205,8.0,17.0,87,0.00,,,0.01,Wunderground v.1.15,2013-02-22 05:19:00,
2013-02-21 21:25:00,44.7,41.1,30.24,SSW,207,9.0,17.0,87,0.00,,,0.01,Wunderground v.1.15,2013-02-22 05:25:00,
2013-02-21 21:31:00,44.3,41.3,30.24,South,190,9.0,17.0,89,0.00,,,0.01,Wunderground v.1.15,2013-02-22 05:31:00,
2013-02-21 21:36:00,44.0,41.3,30.24,SW,227,9.0,17.0,90,0.00,,,0.01,Wunderground v.1.15,2013-02-22 05:36:00,
2013-02-21 21:42:00,44.0,41.3,30.24,SW,232,9.0,17.0,90,0.00,,,0.01,Wunderground v.1.15,2013-02-22 05:42:00,
2013-02-21 21:47:00,43.9,41.4,30.25,SW,225,9.0,17.0,91,0.00,,,0.01,Wunderground v.1.15,2013-02-22 05:47:00,
2013-02-21 21:53:00,44.0,41.5,30.26,SW,219,9.0,17.0,91,0.00,,,0.01,Wunderground v.1.15,2013-02-22 05:53:00,
2013-02-21 21:58:00,44.1,41.6,30.25,SSW,200,9.0,17.0,91,0.00,,,0.01,Wunderground v.1.15,2013-02-22 05:58:00,
2013-02-21 22:03:00,44.1,41.9,30.24,SSW,203,9.0,17.0,92,0.00,,,0.01,Wunderground v.1.15,2013-02-22 06:03:00,
2013-02-21 22:09:00,44.3,42.4,30.24,SSW,209,8.0,17.0,93,0.00,,,0.01,Wunderground v.1.15,2013-02-22 06:09:00,
2013-02-21 22:14:00,44.3,42.4,30.24,SSW,204,8.0,17.0,93,0.00,,,0.01,Wunderground v.1.15,2013-02-22 06:14:00,
2013-02-21 22:20:00,44.2,42.3,30.24,SSW,211,8.0,8.0,93,0.00,,,0.01,Wunderground v.1.15,2013-02-22 06:20:00,
2013-02-21 22:25:00,44.1,42.2,30.24,SSW,200,8.0,17.0,93,0.00,,,0.01,Wunderground v.1.15,2013-02-22 06:25:00,
2013-02-21 22:30:00,44.1,42.5,30.24,SSW,206,8.0,17.0,94,0.00,,,0.01,Wunderground v.1.15,2013-02-22 06:30:00,
2013-02-21 22:36:00,44.3,42.7,30.24,SW,218,8.0,17.0,94,0.00,,,0.01,Wunderground v.1.15,2013-02-22 06:36:00,
2013-02-21 22:42:00,44.1,42.5,30.24,SSW,197,8.0,17.0,94,0.00,,,0.01,Wunderground v.1.15,2013-02-22 06:42:00,
2013-02-21 22:47:00,44.2,42.6,30.25,SSW,196,8.0,17.0,94,0.00,,,0.01,Wunderground v.1.15,2013-02-22 06:47:00,
2013-02-21 22:53:00,44.4,42.8,30.25,SSW,200,9.0,17.0,94,0.00,,,0.01,Wunderground v.1.15,2013-02-22 06:53:00,
2013-02-21 22:59:00,44.4,42.8,30.25,SSW,203,8.0,17.0,94,0.00,,,0.01,Wunderground v.1.15,2013-02-22 06:59:00,
2013-02-21 23:04:00,44.4,42.8,30.24,SSW,207,8.0,17.0,94,0.00,,,0.01,Wunderground v.1.15,2013-02-22 07:04:00,
2013-02-21 23:10:00,44.3,42.7,30.25,SSW,201,9.0,9.0,94,0.00,,,0.01,Wunderground v.1.15,2013-02-22 07:10:00,
2013-02-21 23:15:00,44.3,42.7,30.25,SSW,212,9.0,17.0,94,0.00,,,0.01,Wunderground v.1.15,2013-02-22 07:15:00,
2013-02-21 23:21:00,43.7,41.8,30.25,SSW,209,8.0,17.0,93,0.00,,,0.01,Wunderground v.1.15,2013-02-22 07:21:00,
2013-02-21 23:27:00,43.6,41.7,30.26,SSW,213,8.0,17.0,93,0.00,,,0.01,Wunderground v.1.15,2013-02-22 07:27:00,
2013-02-21 23:33:00,43.6,42.0,30.25,SSW,192,7.0,17.0,94,0.00,,,0.02,Wunderground v.1.15,2013-02-22 07:33:00,
2013-02-21 23:38:00,43.5,41.9,30.25,South,189,7.0,17.0,94,0.00,,,0.02,Wunderground v.1.15,2013-02-22 07:38:00,
2013-02-21 23:44:00,43.4,41.8,30.25,SSW,193,7.0,17.0,94,0.00,,,0.02,Wunderground v.1.15,2013-02-22 07:44:00,
2013-02-21 23:49:00,43.3,41.7,30.25,South,175,7.0,17.0,94,0.00,,,0.02,Wunderground v.1.15,2013-02-22 07:49:00,
2013-02-21 23:54:00,43.2,41.6,30.25,SSW,202,8.0,17.0,94,0.00,,,0.02,Wunderground v.1.15,2013-02-22 07:54:00,